Pagrindinis puslapis
METAR-TAF:

METAR-TAF

Oro uostai :

Kugaaruk, Nunavutas, Kanada

platuma: 68-32N, ilguma: 089-49W, Aukštis: 15 m

Dabartinis oras

Ataskaita buvo paskelbta 7 valandos ir 19 minutes, ne 00:00 UTC
Vėjas 5 kt iš Vakarų
Temperatūra -32°C
Drėgmė 67%
Slėgis 1021 hPa
Matomumas: 24.1 km
Giedras dangus

METAR: CYBB 280000Z 28005KT 15SM SKC M32/M36 A3015 RMK TR/HARD PACK/LAST STFD OBS/NXT/281300Z SLP215

Laikas: 00:19 (07:19 UTC)

Prognozė

Ataskaita buvo paskelbta 12 valandos ir 41 minutes, ne 18:38 UTC
Prognozė galioja nuo 27 metu 19 UTC su 27 metu 24 UTC
Vėjas 10 kt iš Pietvakarių
Matomumas: 10 km
Išsisklaidę debesys ne aukštis 10000 ft

TAF: CYBB 271838Z 2719/2724 23010KT P6SM SCT100 RMK NXT FCST WILL BE ISSUED AT 281445Z

Orai ataskaitas ir orų prognozės (METAR, TAF).

turimą stotys yra geltonos ir raudonos taškus žemėlapyje.

Perkelti pele per norėdami pamatyti stoties vardą.

Tada spustelėkite, norėdami matyti oro stebėjimo ir prognozės.

Norėdami pakeisti žemėlapį: spustelėkite ant žalios mygtukų su juodo kryžiaus žemyn,; žalią mygtuką su brūkšneliu, jei norite nutolinti; arba žalių rodyklių gretimoms žemėlapius.


METAR-TAF: